createdAt,value
2022-12-31T00:01:56.224Z,0.50
2022-12-31T00:04:23.498Z,0.40
2022-12-31T00:06:50.697Z,0.60
2022-12-31T00:09:17.885Z,0.35
2022-12-31T00:11:45.165Z,0.40
2022-12-31T00:14:12.390Z,0.40
2022-12-31T00:16:40.740Z,0.30
2022-12-31T00:19:09.801Z,0.30
2022-12-31T00:21:40.232Z,0.30
2022-12-31T00:24:07.925Z,0.30
2022-12-31T00:26:35.393Z,0.40
2022-12-31T00:29:03.266Z,0.65
2022-12-31T00:31:32.973Z,0.30
2022-12-31T00:34:00.340Z,0.35
2022-12-31T00:36:28.486Z,0.40
2022-12-31T00:38:56.463Z,0.40
2022-12-31T00:41:24.354Z,0.50
2022-12-31T00:43:51.613Z,0.35
2022-12-31T00:46:19.345Z,0.45
2022-12-31T00:48:46.654Z,0.50
2022-12-31T00:51:15.330Z,0.57
2022-12-31T00:53:42.576Z,0.40
2022-12-31T00:56:36.131Z,0.45
2022-12-31T00:59:03.355Z,0.50
2022-12-31T01:01:32.773Z,0.50
2022-12-31T01:04:09.459Z,0.40
2022-12-31T01:06:36.698Z,0.45
2022-12-31T01:09:04.406Z,0.40
2022-12-31T01:11:31.786Z,0.60
2022-12-31T01:14:09.108Z,0.30
2022-12-31T01:16:41.245Z,0.40
2022-12-31T01:19:10.550Z,0.40
2022-12-31T01:21:38.571Z,0.38
2022-12-31T01:24:07.072Z,0.32
2022-12-31T01:26:34.345Z,0.40
2022-12-31T01:29:01.571Z,0.50
2022-12-31T01:31:28.790Z,0.40
2022-12-31T01:33:56.072Z,0.40
2022-12-31T01:36:26.197Z,0.40
2022-12-31T01:38:56.160Z,0.30
2022-12-31T01:41:28.963Z,0.40
2022-12-31T01:43:58.504Z,0.32
2022-12-31T01:46:47.027Z,0.50
2022-12-31T01:49:38.425Z,0.40
2022-12-31T01:52:17.257Z,0.40
2022-12-31T01:54:47.755Z,0.52
2022-12-31T01:57:14.994Z,0.30
2022-12-31T01:59:42.450Z,0.40
2022-12-31T02:02:09.688Z,0.50
2022-12-31T02:04:36.959Z,0.40
2022-12-31T02:07:08.022Z,0.60
2022-12-31T02:09:36.820Z,0.40
2022-12-31T02:12:04.870Z,0.38
2022-12-31T02:14:42.578Z,0.40
2022-12-31T02:17:21.692Z,0.50
2022-12-31T02:20:29.594Z,0.40
2022-12-31T02:23:39.966Z,0.50
2022-12-31T02:26:42.590Z,0.30
2022-12-31T02:29:39.656Z,0.30
2022-12-31T02:32:30.430Z,0.30
2022-12-31T02:35:14.685Z,0.40
2022-12-31T02:37:42.987Z,0.40
2022-12-31T02:40:11.690Z,0.30
2022-12-31T02:42:38.901Z,0.50
2022-12-31T02:45:06.827Z,0.40
2022-12-31T02:47:43.612Z,0.40
2022-12-31T02:50:14.083Z,0.30
2022-12-31T02:52:53.569Z,0.30
2022-12-31T02:55:39.532Z,0.30
2022-12-31T02:58:58.991Z,0.40
2022-12-31T03:01:51.073Z,0.52
2022-12-31T03:04:33.315Z,0.30
2022-12-31T03:07:05.737Z,0.40
2022-12-31T03:09:33.533Z,0.47
2022-12-31T03:12:18.933Z,0.40
2022-12-31T03:14:46.164Z,0.40
2022-12-31T03:17:13.428Z,0.40
2022-12-31T03:19:59.339Z,0.40
2022-12-31T03:22:29.639Z,0.20
2022-12-31T03:25:33.205Z,0.30
2022-12-31T03:28:11.303Z,0.50
2022-12-31T03:30:40.022Z,0.50
2022-12-31T03:33:07.693Z,0.40
2022-12-31T03:35:35.909Z,0.20
2022-12-31T03:38:03.353Z,0.40
2022-12-31T03:40:31.116Z,0.52
2022-12-31T03:42:58.381Z,0.30
2022-12-31T03:45:25.646Z,0.30
2022-12-31T03:47:52.854Z,0.30
2022-12-31T03:50:20.217Z,0.30
2022-12-31T03:52:47.508Z,0.28
2022-12-31T03:55:14.864Z,0.30
2022-12-31T03:57:42.083Z,0.40
2022-12-31T04:00:12.109Z,0.30
2022-12-31T04:02:39.460Z,0.40
2022-12-31T04:05:07.466Z,0.20
2022-12-31T04:07:34.798Z,0.30
2022-12-31T04:10:02.731Z,0.38
2022-12-31T04:12:29.928Z,0.30
2022-12-31T04:14:57.196Z,0.40
2022-12-31T04:17:24.543Z,0.45
2022-12-31T04:19:51.715Z,0.30
2022-12-31T04:22:18.958Z,0.40
2022-12-31T04:24:46.211Z,0.40
2022-12-31T04:27:13.599Z,0.40
2022-12-31T04:29:40.870Z,0.40
2022-12-31T04:32:09.991Z,0.30
2022-12-31T04:34:37.282Z,0.30
2022-12-31T04:37:04.502Z,0.38
2022-12-31T04:39:32.017Z,0.50
2022-12-31T04:41:59.197Z,0.30
2022-12-31T04:44:26.388Z,0.30
2022-12-31T04:46:53.641Z,0.50
2022-12-31T04:49:21.339Z,0.40
2022-12-31T04:51:48.527Z,0.30
2022-12-31T04:54:15.713Z,0.30
2022-12-31T04:56:42.941Z,0.40
2022-12-31T04:59:10.475Z,0.30
2022-12-31T05:01:39.373Z,0.30
2022-12-31T05:04:06.669Z,0.40
2022-12-31T05:06:33.958Z,0.30
2022-12-31T05:09:01.594Z,0.30
2022-12-31T05:11:28.811Z,0.40
2022-12-31T05:13:56.025Z,0.38
2022-12-31T05:16:23.413Z,0.30
2022-12-31T05:18:50.656Z,0.35
2022-12-31T05:21:21.223Z,0.35
2022-12-31T05:23:48.782Z,0.30
2022-12-31T05:26:16.169Z,0.40
2022-12-31T05:28:43.533Z,0.30
2022-12-31T05:31:10.809Z,0.30
2022-12-31T05:33:38.065Z,0.35
2022-12-31T05:36:05.563Z,0.20
2022-12-31T05:38:32.936Z,0.30
2022-12-31T05:41:01.397Z,0.20
2022-12-31T05:43:28.647Z,0.43
2022-12-31T05:45:55.905Z,0.40
2022-12-31T05:48:23.689Z,0.30
2022-12-31T05:50:50.929Z,0.43
2022-12-31T05:53:18.145Z,0.30
2022-12-31T05:55:47.241Z,0.30
2022-12-31T05:58:17.460Z,0.40
2022-12-31T06:00:44.838Z,0.40
2022-12-31T06:03:12.124Z,0.32
2022-12-31T06:05:41.255Z,0.30
2022-12-31T06:08:08.931Z,0.30
2022-12-31T06:10:36.230Z,0.40
2022-12-31T06:13:03.482Z,0.50
2022-12-31T06:15:30.742Z,0.20
2022-12-31T06:17:58.037Z,0.30
2022-12-31T06:20:25.259Z,0.40
2022-12-31T06:22:52.475Z,0.30
2022-12-31T06:25:19.660Z,0.30
2022-12-31T06:27:46.882Z,0.40
2022-12-31T06:30:14.288Z,0.50
2022-12-31T06:32:42.066Z,0.40
2022-12-31T06:35:09.571Z,0.30
2022-12-31T06:37:36.885Z,0.57
2022-12-31T06:40:04.586Z,0.30
2022-12-31T06:42:31.879Z,0.40
2022-12-31T06:44:59.202Z,0.30
2022-12-31T06:47:26.560Z,0.40
2022-12-31T06:49:53.777Z,0.38
2022-12-31T06:52:21.185Z,0.40
2022-12-31T06:54:48.715Z,0.32
2022-12-31T06:57:16.211Z,0.47
2022-12-31T06:59:44.764Z,0.30
2022-12-31T07:02:40.102Z,0.30
2022-12-31T07:05:22.059Z,0.55
2022-12-31T07:08:01.570Z,0.52
2022-12-31T07:10:47.464Z,0.50
2022-12-31T07:13:20.453Z,0.40
2022-12-31T07:15:53.640Z,0.40
2022-12-31T07:18:58.141Z,0.40
2022-12-31T07:21:39.337Z,0.50
2022-12-31T07:24:07.923Z,0.50
2022-12-31T07:26:56.128Z,0.50
2022-12-31T07:29:26.866Z,0.60
2022-12-31T07:32:31.612Z,0.50
2022-12-31T07:35:09.521Z,0.60
2022-12-31T07:37:42.828Z,0.40
2022-12-31T07:40:45.432Z,0.63
2022-12-31T07:43:33.276Z,0.40
2022-12-31T07:46:15.318Z,0.50
2022-12-31T07:48:42.835Z,0.55
2022-12-31T07:51:10.752Z,0.40
2022-12-31T07:53:39.905Z,0.35
2022-12-31T07:56:08.593Z,0.60
2022-12-31T07:58:43.380Z,0.50
2022-12-31T08:01:12.471Z,0.60
2022-12-31T08:04:08.227Z,0.50
2022-12-31T08:07:05.525Z,0.40
2022-12-31T08:09:56.501Z,0.50
2022-12-31T08:12:24.338Z,0.30
2022-12-31T08:14:51.827Z,0.35
2022-12-31T08:17:19.578Z,0.70
2022-12-31T08:19:47.088Z,0.57
2022-12-31T08:22:36.107Z,0.60
2022-12-31T08:25:23.698Z,0.60
2022-12-31T08:28:14.516Z,0.40
2022-12-31T08:31:15.871Z,0.52
2022-12-31T08:33:52.062Z,0.50
2022-12-31T08:36:44.303Z,0.40
2022-12-31T08:39:35.635Z,0.50
2022-12-31T08:42:04.941Z,0.50
2022-12-31T08:44:53.748Z,0.50
2022-12-31T08:47:52.766Z,0.40
2022-12-31T08:50:24.241Z,0.50
2022-12-31T08:52:51.736Z,0.60
2022-12-31T08:55:19.419Z,1.35
2022-12-31T08:58:05.036Z,0.50
2022-12-31T09:00:32.244Z,0.47
2022-12-31T09:03:08.543Z,0.57
2022-12-31T09:06:03.123Z,0.60
2022-12-31T09:08:54.988Z,0.50
2022-12-31T09:11:31.137Z,0.40
2022-12-31T09:14:20.930Z,0.50
2022-12-31T09:17:04.627Z,0.40
2022-12-31T09:19:31.852Z,0.47
2022-12-31T09:21:59.283Z,0.50
2022-12-31T09:24:26.817Z,0.50
2022-12-31T09:27:22.466Z,0.30
2022-12-31T09:30:13.143Z,0.50
2022-12-31T09:33:01.669Z,0.60
2022-12-31T09:35:49.644Z,0.73
2022-12-31T09:38:23.161Z,0.50
2022-12-31T09:41:27.995Z,0.40
2022-12-31T09:44:13.460Z,0.43
2022-12-31T09:46:58.504Z,0.50
2022-12-31T09:49:37.749Z,0.60
2022-12-31T09:52:17.046Z,0.63
2022-12-31T09:54:50.090Z,0.80
2022-12-31T09:57:32.379Z,0.47
2022-12-31T10:00:11.521Z,0.68
2022-12-31T10:02:59.808Z,0.60
2022-12-31T10:06:03.791Z,0.60
2022-12-31T10:08:43.064Z,0.57
2022-12-31T10:11:46.840Z,0.70
2022-12-31T10:14:19.915Z,0.50
2022-12-31T10:16:52.211Z,0.70
2022-12-31T10:19:31.509Z,0.35
2022-12-31T10:22:33.022Z,0.50
2022-12-31T10:25:19.047Z,0.50
2022-12-31T10:28:22.549Z,0.40
2022-12-31T10:31:15.701Z,0.30
2022-12-31T10:33:42.953Z,0.50
2022-12-31T10:36:19.930Z,0.35
2022-12-31T10:39:00.476Z,0.50
2022-12-31T10:41:55.517Z,0.52
2022-12-31T10:44:44.327Z,0.57
2022-12-31T10:47:44.689Z,0.35
2022-12-31T10:50:47.251Z,0.28
2022-12-31T10:53:27.615Z,0.60
2022-12-31T10:56:07.616Z,0.38
2022-12-31T10:58:53.175Z,0.50
2022-12-31T11:01:33.008Z,0.40
2022-12-31T11:04:24.935Z,0.40
2022-12-31T11:07:23.180Z,0.50
2022-12-31T11:10:27.873Z,0.40
2022-12-31T11:13:16.888Z,0.50
2022-12-31T11:16:28.822Z,0.65
2022-12-31T11:19:07.285Z,0.38
2022-12-31T11:21:41.558Z,0.30
2022-12-31T11:24:33.248Z,0.40
2022-12-31T11:27:09.266Z,0.40
2022-12-31T11:30:03.570Z,0.40
2022-12-31T11:32:55.165Z,0.40
2022-12-31T11:35:42.091Z,0.20
2022-12-31T11:38:27.477Z,0.40
2022-12-31T11:41:11.611Z,0.25
2022-12-31T11:43:53.837Z,0.20
2022-12-31T11:46:42.632Z,0.30
2022-12-31T11:49:55.757Z,0.30
2022-12-31T11:52:39.601Z,0.40
2022-12-31T11:55:30.437Z,0.30
2022-12-31T11:58:00.304Z,0.43
2022-12-31T12:00:28.096Z,0.32
2022-12-31T12:03:05.457Z,0.30
2022-12-31T12:05:33.044Z,0.30
2022-12-31T12:08:00.529Z,0.43
2022-12-31T12:10:36.148Z,0.30
2022-12-31T12:13:17.484Z,0.43
2022-12-31T12:15:52.422Z,0.32
2022-12-31T12:18:40.998Z,0.30
2022-12-31T12:21:21.792Z,0.30
2022-12-31T12:24:06.273Z,0.35
2022-12-31T12:26:38.063Z,0.35
2022-12-31T12:29:18.152Z,0.50
2022-12-31T12:32:14.029Z,0.28
2022-12-31T12:34:47.604Z,0.25
2022-12-31T12:37:34.321Z,0.50
2022-12-31T12:40:02.384Z,0.35
2022-12-31T12:42:30.023Z,0.60
2022-12-31T12:45:24.990Z,0.40
2022-12-31T12:48:00.687Z,0.30
2022-12-31T12:50:39.676Z,0.40
2022-12-31T12:53:19.628Z,0.40
2022-12-31T12:55:53.009Z,0.40
2022-12-31T12:58:37.585Z,0.60
2022-12-31T13:01:40.283Z,1.02
2022-12-31T13:04:34.322Z,1.10
2022-12-31T13:07:28.704Z,0.90
2022-12-31T13:10:19.157Z,1.23
2022-12-31T13:13:23.196Z,1.00
2022-12-31T13:16:00.342Z,1.17
2022-12-31T13:18:46.281Z,0.90
2022-12-31T13:21:35.808Z,1.10
2022-12-31T13:24:22.332Z,1.10
2022-12-31T13:27:02.473Z,0.90
2022-12-31T13:29:31.490Z,1.20
2022-12-31T13:31:58.829Z,1.17
2022-12-31T13:34:29.189Z,3.38
2022-12-31T13:36:58.065Z,2.20
2022-12-31T13:39:27.443Z,3.22
2022-12-31T13:42:08.927Z,1.38
2022-12-31T13:44:36.850Z,0.98
2022-12-31T13:47:22.212Z,1.00
2022-12-31T13:49:57.931Z,0.90
2022-12-31T13:52:54.604Z,1.30
2022-12-31T13:55:33.764Z,1.85
2022-12-31T13:58:12.912Z,1.48
2022-12-31T14:00:41.299Z,1.45
2022-12-31T14:03:19.859Z,1.10
2022-12-31T14:05:53.417Z,1.25
2022-12-31T14:08:20.628Z,1.20
2022-12-31T14:11:18.662Z,1.23
2022-12-31T14:13:51.893Z,1.17
2022-12-31T14:16:48.663Z,1.70
2022-12-31T14:19:31.706Z,1.40
2022-12-31T14:22:07.442Z,1.42
2022-12-31T14:24:47.196Z,1.50
2022-12-31T14:27:26.259Z,1.25
2022-12-31T14:30:13.716Z,1.20
2022-12-31T14:33:10.709Z,1.50
2022-12-31T14:36:10.529Z,1.33
2022-12-31T14:38:53.208Z,1.58
2022-12-31T14:41:53.992Z,1.50
2022-12-31T14:44:45.321Z,1.20
2022-12-31T14:47:31.780Z,1.15
2022-12-31T14:49:58.961Z,1.48
2022-12-31T14:52:32.352Z,1.30
2022-12-31T14:55:03.255Z,1.40
2022-12-31T14:58:01.527Z,1.65
2022-12-31T15:00:51.022Z,2.03
2022-12-31T15:03:18.293Z,2.28
2022-12-31T15:06:08.675Z,2.17
2022-12-31T15:09:08.926Z,2.15
2022-12-31T15:11:57.337Z,1.80
2022-12-31T15:14:37.499Z,2.33
2022-12-31T15:17:12.051Z,2.28
2022-12-31T15:20:11.530Z,2.42
2022-12-31T15:22:48.266Z,2.47
2022-12-31T15:25:21.479Z,1.95
2022-12-31T15:27:48.690Z,2.30
2022-12-31T15:30:46.125Z,2.70
2022-12-31T15:33:29.315Z,2.75
2022-12-31T15:35:56.968Z,3.08
2022-12-31T15:38:50.779Z,3.35
2022-12-31T15:41:27.092Z,2.25
2022-12-31T15:44:31.582Z,3.50
2022-12-31T15:47:35.643Z,5.35
2022-12-31T15:50:05.267Z,7.18
2022-12-31T15:52:53.720Z,5.10
2022-12-31T15:55:48.620Z,5.30
2022-12-31T15:58:23.057Z,5.78
2022-12-31T16:01:15.003Z,6.55
2022-12-31T16:03:47.112Z,5.88
2022-12-31T16:06:15.537Z,7.63
2022-12-31T16:08:47.861Z,6.55
2022-12-31T16:11:15.082Z,8.32
2022-12-31T16:13:44.573Z,6.55
2022-12-31T16:16:25.305Z,7.30
2022-12-31T16:18:53.151Z,10.20
2022-12-31T16:21:27.154Z,9.35
2022-12-31T16:23:56.364Z,7.37
2022-12-31T16:26:24.788Z,7.00
2022-12-31T16:28:52.007Z,7.35
2022-12-31T16:31:19.929Z,7.10
2022-12-31T16:33:47.316Z,8.65
2022-12-31T16:36:19.202Z,8.02
2022-12-31T16:38:46.384Z,9.65
2022-12-31T16:41:20.269Z,14.55
2022-12-31T16:43:50.717Z,14.27
2022-12-31T16:46:20.057Z,14.68
2022-12-31T16:48:48.517Z,12.25
2022-12-31T16:51:21.187Z,13.85
2022-12-31T16:53:48.912Z,13.40
2022-12-31T16:56:36.124Z,18.33
2022-12-31T16:59:18.602Z,19.30
2022-12-31T17:01:45.882Z,22.30
2022-12-31T17:04:15.960Z,68.63
2022-12-31T17:06:43.994Z,46.50
2022-12-31T17:09:14.605Z,26.90
2022-12-31T17:11:54.281Z,19.27
2022-12-31T17:14:30.588Z,17.42
2022-12-31T17:17:03.822Z,19.38
2022-12-31T17:19:48.711Z,19.52
2022-12-31T17:22:36.491Z,36.92
2022-12-31T17:25:04.296Z,56.92
2022-12-31T17:27:31.522Z,48.75
2022-12-31T17:30:29.510Z,45.72
2022-12-31T17:33:04.126Z,52.22
2022-12-31T17:35:32.868Z,46.85
2022-12-31T17:38:21.235Z,37.20
2022-12-31T17:41:04.252Z,34.78
2022-12-31T17:43:35.744Z,33.55
2022-12-31T17:46:03.814Z,30.27
2022-12-31T17:48:31.898Z,26.35
2022-12-31T17:51:00.221Z,27.35
2022-12-31T17:53:27.468Z,29.08
2022-12-31T17:56:00.642Z,31.30
2022-12-31T17:58:29.910Z,31.17
2022-12-31T18:00:57.439Z,32.95
2022-12-31T18:03:24.808Z,31.10
2022-12-31T18:05:52.018Z,25.17
2022-12-31T18:08:19.233Z,18.58
2022-12-31T18:10:46.468Z,26.30
2022-12-31T18:13:15.439Z,19.98
2022-12-31T18:15:42.748Z,21.15
2022-12-31T18:18:29.464Z,24.98
2022-12-31T18:20:58.996Z,23.65
2022-12-31T18:26:23.271Z,21.10
2022-12-31T18:28:50.975Z,22.17
2022-12-31T18:31:23.191Z,18.85
2022-12-31T18:33:51.007Z,17.17
2022-12-31T18:36:19.206Z,16.02
2022-12-31T18:38:46.457Z,16.80
2022-12-31T18:41:17.422Z,18.73
2022-12-31T18:43:44.621Z,20.50
2022-12-31T18:46:17.301Z,17.95
2022-12-31T18:48:44.602Z,18.52
2022-12-31T18:51:16.347Z,17.48
2022-12-31T18:53:43.650Z,23.98
2022-12-31T18:56:12.735Z,26.92
2022-12-31T18:58:40.264Z,23.08
2022-12-31T19:01:26.813Z,19.63
2022-12-31T19:03:55.703Z,20.20
2022-12-31T19:06:23.009Z,23.98
2022-12-31T19:08:50.288Z,21.90
2022-12-31T19:11:17.850Z,25.45
2022-12-31T19:13:45.097Z,45.72
2022-12-31T19:16:13.827Z,28.75
2022-12-31T19:18:41.599Z,24.65
2022-12-31T19:21:16.686Z,22.60
2022-12-31T19:23:44.544Z,21.02
2022-12-31T19:26:19.236Z,21.40
2022-12-31T19:28:46.840Z,17.48
2022-12-31T19:31:14.269Z,16.83
2022-12-31T19:33:41.686Z,17.30
2022-12-31T19:36:19.260Z,24.50
2022-12-31T19:38:46.790Z,40.50
2022-12-31T19:41:16.055Z,67.90
2022-12-31T19:43:43.583Z,31.30
2022-12-31T19:46:14.561Z,25.10
2022-12-31T19:48:41.790Z,25.13
2022-12-31T19:51:10.908Z,29.08
2022-12-31T19:53:38.409Z,31.80
2022-12-31T19:56:05.785Z,30.63
2022-12-31T19:58:32.987Z,29.67
2022-12-31T20:01:02.787Z,26.75
2022-12-31T20:03:32.370Z,25.83
2022-12-31T20:06:07.572Z,26.63
2022-12-31T20:08:35.659Z,28.20
2022-12-31T20:11:17.340Z,30.15
2022-12-31T20:13:44.864Z,22.20
2022-12-31T20:16:13.344Z,24.45
2022-12-31T20:18:41.405Z,19.73
2022-12-31T20:21:17.795Z,20.52
2022-12-31T20:23:45.117Z,17.85
2022-12-31T20:26:12.486Z,16.67
2022-12-31T20:28:39.706Z,23.85
2022-12-31T20:31:11.797Z,23.35
2022-12-31T20:33:39.062Z,31.42
2022-12-31T20:36:07.919Z,38.35
2022-12-31T20:38:35.161Z,31.15
2022-12-31T20:41:05.270Z,28.77
2022-12-31T20:43:33.076Z,26.23
2022-12-31T20:46:00.442Z,25.85
2022-12-31T20:48:27.699Z,29.92
2022-12-31T20:50:57.930Z,37.33
2022-12-31T20:53:25.206Z,33.60
2022-12-31T20:55:52.442Z,26.83
2022-12-31T20:58:20.749Z,28.75
2022-12-31T21:00:49.259Z,24.80
2022-12-31T21:03:53.458Z,21.95
2022-12-31T21:06:05.778Z,21.85
2022-12-31T21:08:35.159Z,25.80
2022-12-31T21:11:03.148Z,27.33
2022-12-31T21:13:31.083Z,26.35
2022-12-31T21:15:58.451Z,31.00
2022-12-31T21:18:25.714Z,29.35
2022-12-31T21:20:53.006Z,29.38
2022-12-31T21:23:20.480Z,33.80
2022-12-31T21:25:49.839Z,33.25
2022-12-31T21:28:17.087Z,34.35
2022-12-31T21:30:44.304Z,27.88
2022-12-31T21:33:11.545Z,32.40
2022-12-31T21:35:48.332Z,24.88
2022-12-31T21:38:20.468Z,23.83
2022-12-31T21:40:47.793Z,22.50
2022-12-31T21:43:16.406Z,25.92
2022-12-31T21:45:43.639Z,21.83
2022-12-31T21:48:20.533Z,21.25
2022-12-31T21:50:48.778Z,21.08
2022-12-31T21:53:23.537Z,18.10
2022-12-31T21:56:11.862Z,17.20
2022-12-31T21:58:40.852Z,16.73
2022-12-31T22:01:32.895Z,14.45
2022-12-31T22:04:00.230Z,15.23
2022-12-31T22:06:27.616Z,15.40
2022-12-31T22:08:55.479Z,15.00
2022-12-31T22:11:24.452Z,15.70
2022-12-31T22:13:51.742Z,39.58
2022-12-31T22:16:20.165Z,37.72
2022-12-31T22:18:47.965Z,42.45
2022-12-31T22:21:20.448Z,31.25
2022-12-31T22:23:48.975Z,27.63
2022-12-31T22:26:16.827Z,21.17
2022-12-31T22:28:44.366Z,21.52
2022-12-31T22:31:19.684Z,18.65
2022-12-31T22:33:47.197Z,18.17
2022-12-31T22:36:18.864Z,17.10
2022-12-31T22:38:46.220Z,17.50
2022-12-31T22:41:20.742Z,22.42
2022-12-31T22:43:49.599Z,20.38
2022-12-31T22:46:24.468Z,21.73
2022-12-31T22:48:52.851Z,17.60
2022-12-31T22:51:20.326Z,18.73
2022-12-31T22:53:47.554Z,14.55
2022-12-31T22:56:16.581Z,16.80
2022-12-31T22:58:43.893Z,16.65
2022-12-31T23:01:22.397Z,18.27
2022-12-31T23:03:50.695Z,37.08
2022-12-31T23:06:18.205Z,170.68
2022-12-31T23:09:03.810Z,124.43
2022-12-31T23:11:31.236Z,173.57
2022-12-31T23:14:16.888Z,214.65
2022-12-31T23:17:30.316Z,289.92
2022-12-31T23:20:08.730Z,304.10
2022-12-31T23:22:54.295Z,249.65
2022-12-31T23:25:21.596Z,250.75
2022-12-31T23:27:48.807Z,230.43
2022-12-31T23:30:16.011Z,253.23
2022-12-31T23:32:43.255Z,207.95
2022-12-31T23:35:10.516Z,165.80
2022-12-31T23:37:37.717Z,160.82
2022-12-31T23:40:06.348Z,130.48
2022-12-31T23:42:33.561Z,130.30
2022-12-31T23:45:00.777Z,121.93
2022-12-31T23:47:27.976Z,118.80
2022-12-31T23:49:55.166Z,113.00
2022-12-31T23:52:22.422Z,114.13
2022-12-31T23:54:49.613Z,108.30
2022-12-31T23:57:16.830Z,96.95
2022-12-31T23:59:44.007Z,86.13
